KFDR/FDR METAR and TAF weather

Enter ICAO airport designator
Station Type Date Time Source
KFDR METAR 2019/10/15 18:53 UTC NOAA

KFDR 151853Z AUTO 31014G21KT 10SM CLR 29/09 A2984 RMK AO2 SLP091 T02890089


Station Type Date Time Source
KFDR Decoded METAR 2019/10/15 18:53 UTC NOAA

FREDERICK MUNICIPAL AIRPORT, OK, United States (KFDR) 34-21N 98-59W 377M
Oct 15, 2019 - 02:53 PM EDT / 2019.10.15 1853 UTC
Wind: from the NW (310 degrees) at 16 MPH (14 KT) gusting to 24 MPH (21 KT):0
Visibility: 10 mile(s):0
Sky conditions: clear
Temperature: 84.0 F (28.9 C)
Dew Point: 48.0 F (8.9 C)
Relative Humidity: 28%
Pressure (altimeter): 29.84 in. Hg (1010 hPa)
ob: KFDR 151853Z AUTO 31014G21KT 10SM CLR 29/09 A2984 RMK AO2 SLP091 T02890089
cycle: 19

Station Type Date Time Source
KFDR TAF UTC NOAA

Error!

Example: see airport list